createdAt,value
2018-09-05T00:00:52.384Z,1.80
2018-09-05T00:03:22.395Z,2.10
2018-09-05T00:05:52.441Z,3.33
2018-09-05T00:08:22.427Z,2.97
2018-09-05T00:10:52.533Z,1.80
2018-09-05T00:13:22.559Z,1.93
2018-09-05T00:15:52.523Z,2.27
2018-09-05T00:18:22.492Z,3.93
2018-09-05T00:20:52.109Z,2.00
2018-09-05T00:23:21.634Z,3.50
2018-09-05T00:25:51.381Z,3.10
2018-09-05T00:28:21.437Z,2.70
2018-09-05T00:30:51.427Z,2.20
2018-09-05T00:33:21.741Z,2.90
2018-09-05T00:35:51.271Z,2.70
2018-09-05T00:38:20.697Z,2.40
2018-09-05T00:40:50.457Z,2.93
2018-09-05T00:43:20.499Z,3.20
2018-09-05T00:45:50.145Z,2.80
2018-09-05T00:48:19.922Z,3.10
2018-09-05T00:50:49.543Z,3.30
2018-09-05T00:53:19.377Z,3.77
2018-09-05T00:55:49.017Z,2.20
2018-09-05T00:58:18.447Z,3.23
2018-09-05T01:00:47.839Z,2.10
2018-09-05T01:03:17.649Z,2.53
2018-09-05T01:05:47.699Z,2.50
2018-09-05T01:08:17.417Z,3.50
2018-09-05T01:10:47.178Z,2.27
2018-09-05T01:13:17.147Z,3.97
2018-09-05T01:15:47.199Z,1.67
2018-09-05T01:18:17.189Z,2.97
2018-09-05T01:20:47.543Z,2.30
2018-09-05T01:23:16.967Z,4.20
2018-09-05T01:25:46.849Z,3.33
2018-09-05T01:28:16.547Z,2.60
2018-09-05T01:30:46.324Z,2.90
2018-09-05T01:33:15.985Z,3.13
2018-09-05T01:35:45.481Z,2.47
2018-09-05T01:38:14.980Z,3.47
2018-09-05T01:40:44.798Z,2.03
2018-09-05T01:43:14.799Z,2.80
2018-09-05T01:45:44.791Z,4.10
2018-09-05T01:48:14.715Z,3.33
2018-09-05T01:50:44.675Z,3.83
2018-09-05T01:53:15.044Z,3.13
2018-09-05T01:55:45.100Z,3.00
2018-09-05T01:58:14.752Z,2.20
2018-09-05T02:00:44.175Z,3.13
2018-09-05T02:03:13.961Z,2.30
2018-09-05T02:05:43.553Z,2.63
2018-09-05T02:08:13.349Z,4.97
2018-09-05T02:10:43.301Z,2.90
2018-09-05T02:13:12.953Z,3.73
2018-09-05T02:15:42.763Z,2.63
2018-09-05T02:18:12.861Z,3.50
2018-09-05T02:20:42.859Z,3.80
2018-09-05T02:23:12.863Z,2.50
2018-09-05T02:25:42.486Z,3.50
2018-09-05T02:28:11.949Z,3.60
2018-09-05T02:30:41.351Z,4.97
2018-09-05T02:33:11.137Z,3.67
2018-09-05T02:35:41.132Z,3.47
2018-09-05T02:38:11.190Z,5.70
2018-09-05T02:40:40.914Z,3.50
2018-09-05T02:43:10.645Z,2.27
2018-09-05T02:45:40.951Z,3.83
2018-09-05T02:48:10.573Z,4.63
2018-09-05T02:50:40.009Z,2.53
2018-09-05T02:53:09.447Z,4.70
2018-09-05T02:55:44.137Z,3.27
2018-09-05T02:58:13.556Z,4.20
2018-09-05T03:00:43.343Z,3.63
2018-09-05T03:03:13.307Z,3.60
2018-09-05T03:05:43.289Z,4.00
2018-09-05T03:08:12.923Z,4.17
2018-09-05T03:10:42.311Z,3.90
2018-09-05T03:13:11.776Z,6.93
2018-09-05T03:15:41.548Z,4.03
2018-09-05T03:18:11.415Z,4.90
2018-09-05T03:20:41.550Z,8.20
2018-09-05T03:23:11.631Z,4.63
2018-09-05T03:25:41.233Z,5.53
2018-09-05T03:28:11.077Z,4.53
2018-09-05T03:30:41.095Z,5.33
2018-09-05T03:33:11.095Z,6.67
2018-09-05T03:35:41.067Z,5.53
2018-09-05T03:38:10.694Z,5.80
2018-09-05T03:40:40.472Z,4.63
2018-09-05T03:43:10.409Z,4.90
2018-09-05T03:45:40.103Z,5.33
2018-09-05T03:48:09.922Z,4.90
2018-09-05T03:50:39.574Z,4.00
2018-09-05T03:53:13.027Z,4.20
2018-09-05T03:55:42.810Z,5.17
2018-09-05T03:58:12.753Z,5.67
2018-09-05T04:00:42.394Z,6.27
2018-09-05T04:03:12.167Z,5.13
2018-09-05T04:05:42.713Z,5.67
2018-09-05T04:08:12.460Z,3.97
2018-09-05T04:10:41.963Z,4.43
2018-09-05T04:13:11.736Z,6.33
2018-09-05T04:15:41.720Z,5.30
2018-09-05T04:18:12.197Z,5.40
2018-09-05T04:20:42.868Z,4.97
2018-09-05T04:23:12.288Z,4.10
2018-09-05T04:25:41.682Z,6.10
2018-09-05T04:28:11.479Z,5.30
2018-09-05T04:30:41.429Z,5.67
2018-09-05T04:33:11.487Z,5.43
2018-09-05T04:35:41.463Z,4.17
2018-09-05T04:38:11.161Z,5.80
2018-09-05T04:40:40.643Z,7.23
2018-09-05T04:43:10.043Z,5.87
2018-09-05T04:45:39.441Z,7.73
2018-09-05T04:48:09.195Z,6.43
2018-09-05T04:50:39.267Z,5.37
2018-09-05T04:53:08.952Z,9.03
2018-09-05T04:55:38.333Z,7.90
2018-09-05T04:58:07.789Z,6.10
2018-09-05T05:00:37.547Z,9.30
2018-09-05T05:03:07.607Z,11.33
2018-09-05T05:05:37.666Z,8.77
2018-09-05T05:08:07.290Z,7.50
2018-09-05T05:10:36.771Z,11.20
2018-09-05T05:13:06.199Z,7.07
2018-09-05T05:15:35.698Z,9.30
2018-09-05T05:18:05.468Z,7.07
2018-09-05T05:20:35.621Z,7.03
2018-09-05T05:23:05.259Z,7.80
2018-09-05T05:25:34.807Z,7.00
2018-09-05T05:28:04.597Z,7.00
2018-09-05T05:30:34.496Z,5.63
2018-09-05T05:33:04.106Z,4.93
2018-09-05T05:35:33.509Z,8.80
2018-09-05T05:38:04.729Z,7.63
2018-09-05T05:40:34.164Z,6.60
2018-09-05T05:43:03.685Z,5.70
2018-09-05T05:45:33.487Z,7.00
2018-09-05T05:48:03.169Z,8.03
2018-09-05T05:50:32.975Z,6.60
2018-09-05T05:53:02.734Z,7.23
2018-09-05T05:55:32.595Z,6.00
2018-09-05T05:58:02.313Z,7.37
2018-09-05T06:00:31.719Z,7.30
2018-09-05T06:03:01.134Z,6.00
2018-09-05T06:05:30.907Z,10.63
2018-09-05T06:08:00.572Z,8.30
2018-09-05T06:10:30.045Z,6.40
2018-09-05T06:12:59.855Z,6.47
2018-09-05T06:15:29.299Z,6.37
2018-09-05T06:17:58.797Z,8.23
2018-09-05T06:20:28.547Z,7.73
2018-09-05T06:22:58.563Z,8.13
2018-09-05T06:25:28.176Z,5.80
2018-09-05T06:27:57.723Z,7.23
2018-09-05T06:30:27.237Z,4.83
2018-09-05T06:32:56.631Z,9.40
2018-09-05T06:35:26.083Z,6.80
2018-09-05T06:37:55.531Z,6.10
2018-09-05T06:40:24.967Z,6.70
2018-09-05T06:42:54.429Z,5.60
2018-09-05T06:45:23.866Z,5.13
2018-09-05T06:47:53.346Z,4.30
2018-09-05T06:50:23.099Z,7.73
2018-09-05T06:52:53.123Z,5.93
2018-09-05T06:55:22.737Z,4.70
2018-09-05T06:57:52.235Z,4.30
2018-09-05T07:00:22.093Z,5.67
2018-09-05T07:02:52.185Z,5.10
2018-09-05T07:05:22.263Z,23.77
2018-09-05T07:07:52.332Z,6.33
2018-09-05T07:10:21.990Z,5.03
2018-09-05T07:12:51.415Z,6.53
2018-09-05T07:15:21.947Z,4.47
2018-09-05T07:17:51.961Z,5.67
2018-09-05T07:20:22.672Z,5.13
2018-09-05T07:22:52.380Z,4.97
2018-09-05T07:25:21.829Z,5.27
2018-09-05T07:27:51.548Z,5.73
2018-09-05T07:30:21.543Z,3.47
2018-09-05T07:32:51.573Z,5.30
2018-09-05T07:35:21.577Z,6.20
2018-09-05T07:37:51.260Z,4.27
2018-09-05T07:40:20.716Z,5.77
2018-09-05T07:42:50.328Z,5.70
2018-09-05T07:45:20.157Z,5.60
2018-09-05T07:47:50.127Z,4.17
2018-09-05T07:50:20.152Z,5.17
2018-09-05T07:52:49.802Z,4.60
2018-09-05T07:55:19.613Z,4.67
2018-09-05T07:57:49.242Z,4.53
2018-09-05T08:00:19.145Z,5.97
2018-09-05T08:02:49.193Z,6.20
2018-09-05T08:05:19.136Z,5.53
2018-09-05T08:07:48.850Z,4.07
2018-09-05T08:10:18.286Z,3.23
2018-09-05T08:12:48.046Z,4.23
2018-09-05T08:15:18.066Z,4.97
2018-09-05T08:17:47.774Z,3.93
2018-09-05T08:20:17.590Z,3.87
2018-09-05T08:22:47.216Z,4.20
2018-09-05T08:25:16.678Z,5.17
2018-09-05T08:27:46.070Z,3.17
2018-09-05T08:30:15.544Z,4.73
2018-09-05T08:32:45.292Z,3.33
2018-09-05T08:35:15.603Z,4.10
2018-09-05T08:37:45.285Z,3.00
2018-09-05T08:40:14.832Z,4.00
2018-09-05T08:42:44.531Z,5.40
2018-09-05T08:45:14.179Z,2.50
2018-09-05T08:47:43.417Z,3.77
2018-09-05T08:50:12.814Z,2.93
2018-09-05T08:52:42.368Z,3.00
2018-09-05T08:55:11.752Z,2.73
2018-09-05T08:57:41.494Z,2.30
2018-09-05T09:00:11.544Z,4.30
2018-09-05T09:02:41.518Z,3.73
2018-09-05T09:05:11.172Z,4.10
2018-09-05T09:07:41.056Z,3.57
2018-09-05T09:10:10.766Z,3.80
2018-09-05T09:12:40.259Z,2.53
2018-09-05T09:15:09.699Z,3.07
2018-09-05T09:17:39.174Z,3.70
2018-09-05T09:20:09.102Z,1.87
2018-09-05T09:22:38.795Z,2.53
2018-09-05T09:25:08.241Z,3.10
2018-09-05T09:27:37.725Z,1.97
2018-09-05T09:30:07.904Z,2.60
2018-09-05T09:32:37.635Z,3.00
2018-09-05T09:35:07.061Z,1.50
2018-09-05T09:37:36.461Z,2.10
2018-09-05T09:40:06.291Z,1.90
2018-09-05T09:42:35.947Z,2.23
2018-09-05T09:45:05.379Z,2.13
2018-09-05T09:47:35.171Z,1.43
2018-09-05T09:50:04.869Z,2.10
2018-09-05T09:52:38.935Z,1.93
2018-09-05T09:55:09.278Z,2.03
2018-09-05T09:57:38.911Z,2.17
2018-09-05T10:00:08.613Z,2.60
2018-09-05T10:02:43.595Z,3.23
2018-09-05T10:05:18.627Z,2.40
2018-09-05T10:07:54.047Z,1.60
2018-09-05T10:10:29.149Z,3.00
2018-09-05T10:14:04.634Z,1.93
2018-09-05T10:16:39.334Z,1.90
2018-09-05T10:19:10.857Z,2.13
2018-09-05T10:21:40.563Z,2.03
2018-09-05T10:24:10.019Z,2.63
2018-09-05T10:26:39.853Z,3.13
2018-09-05T10:29:09.706Z,3.27
2018-09-05T10:31:39.647Z,2.37
2018-09-05T10:34:09.649Z,3.50
2018-09-05T10:36:39.413Z,2.40
2018-09-05T10:39:09.601Z,3.20
2018-09-05T10:41:39.393Z,3.03
2018-09-05T10:44:09.803Z,3.47
2018-09-05T10:46:39.813Z,2.70
2018-09-05T10:49:09.821Z,2.73
2018-09-05T10:51:45.236Z,3.93
2018-09-05T10:54:15.147Z,3.23
2018-09-05T10:56:44.877Z,2.20
2018-09-05T10:59:14.367Z,2.17
2018-09-05T11:01:43.804Z,5.20
2018-09-05T11:04:13.317Z,1.50
2018-09-05T11:06:42.729Z,1.40
2018-09-05T11:09:13.091Z,3.33
2018-09-05T11:11:42.539Z,3.10
2018-09-05T11:14:12.053Z,2.30
2018-09-05T11:16:41.664Z,1.97
2018-09-05T11:19:11.453Z,1.40
2018-09-05T11:21:41.694Z,1.43
2018-09-05T11:24:11.446Z,2.00
2018-09-05T11:26:41.259Z,2.57
2018-09-05T11:29:10.933Z,1.97
2018-09-05T11:31:40.398Z,1.87
2018-09-05T11:34:09.905Z,3.83
2018-09-05T11:36:39.798Z,1.90
2018-09-05T11:39:10.787Z,1.00
2018-09-05T11:41:40.262Z,3.03
2018-09-05T11:44:09.665Z,1.60
2018-09-05T11:46:40.018Z,1.40
2018-09-05T11:49:09.837Z,1.07
2018-09-05T11:51:39.834Z,1.43
2018-09-05T11:54:10.403Z,1.20
2018-09-05T11:56:40.073Z,1.30
2018-09-05T11:59:09.841Z,0.90
2018-09-05T12:01:39.828Z,1.00
2018-09-05T12:04:09.876Z,2.00
2018-09-05T12:06:39.953Z,1.33
2018-09-05T12:09:11.554Z,1.00
2018-09-05T12:11:41.709Z,1.93
2018-09-05T12:14:11.661Z,0.80
2018-09-05T12:16:41.675Z,1.57
2018-09-05T12:19:11.356Z,1.43
2018-09-05T12:21:41.680Z,1.20
2018-09-05T12:24:11.113Z,0.90
2018-09-05T12:26:40.500Z,1.63
2018-09-05T12:29:11.678Z,1.57
2018-09-05T12:31:42.269Z,1.47
2018-09-05T12:34:12.756Z,1.20
2018-09-05T12:36:42.686Z,1.40
2018-09-05T12:39:14.001Z,1.37
2018-09-05T12:41:43.820Z,1.00
2018-09-05T12:44:13.758Z,2.57
2018-09-05T12:46:43.396Z,1.33
2018-09-05T12:49:13.177Z,1.20
2018-09-05T12:51:42.805Z,1.07
2018-09-05T12:54:12.602Z,2.43
2018-09-05T12:56:42.616Z,1.00
2018-09-05T12:59:12.566Z,0.80
2018-09-05T13:01:42.244Z,0.90
2018-09-05T13:04:11.692Z,1.17
2018-09-05T13:06:41.183Z,1.57
2018-09-05T13:09:12.304Z,1.40
2018-09-05T13:11:41.820Z,1.50
2018-09-05T13:14:11.794Z,1.10
2018-09-05T13:16:41.494Z,0.80
2018-09-05T13:19:10.909Z,1.43
2018-09-05T13:21:40.390Z,1.20
2018-09-05T13:24:10.283Z,1.50
2018-09-05T13:26:40.024Z,2.40
2018-09-05T13:29:09.988Z,1.30
2018-09-05T13:31:39.996Z,1.60
2018-09-05T13:34:09.993Z,1.27
2018-09-05T13:36:39.665Z,1.10
2018-09-05T13:39:10.218Z,1.27
2018-09-05T13:41:40.381Z,1.23
2018-09-05T13:44:10.343Z,1.07
2018-09-05T13:46:40.096Z,1.43
2018-09-05T13:49:09.852Z,1.60
2018-09-05T13:51:39.846Z,1.47
2018-09-05T13:54:09.492Z,2.20
2018-09-05T13:56:38.890Z,1.20
2018-09-05T13:59:08.303Z,1.07
2018-09-05T14:01:38.057Z,1.27
2018-09-05T14:04:08.027Z,1.30
2018-09-05T14:06:37.636Z,3.23
2018-09-05T14:09:09.710Z,1.30
2018-09-05T14:11:39.350Z,1.43
2018-09-05T14:14:09.190Z,1.50
2018-09-05T14:16:38.596Z,1.50
2018-09-05T14:19:08.198Z,1.60
2018-09-05T14:21:39.093Z,1.70
2018-09-05T14:24:09.150Z,1.40
2018-09-05T14:26:40.233Z,2.20
2018-09-05T14:29:09.720Z,1.87
2018-09-05T14:31:39.213Z,1.70
2018-09-05T14:34:08.642Z,2.30
2018-09-05T14:36:38.552Z,1.40
2018-09-05T14:39:11.020Z,1.50
2018-09-05T14:41:42.209Z,1.30
2018-09-05T14:47:09.481Z,1.67
2018-09-05T14:49:39.188Z,1.23
2018-09-05T14:52:08.857Z,1.43
2018-09-05T14:54:38.574Z,2.13
2018-09-05T14:57:08.331Z,1.63
2018-09-05T14:59:38.157Z,2.60
2018-09-05T15:02:07.856Z,1.33
2018-09-05T15:04:37.288Z,2.40
2018-09-05T15:07:06.862Z,2.37
2018-09-05T15:09:36.305Z,1.30
2018-09-05T15:12:06.596Z,1.57
2018-09-05T15:14:36.000Z,1.57
2018-09-05T15:17:05.872Z,1.13
2018-09-05T15:19:35.539Z,1.87
2018-09-05T15:22:05.504Z,1.53
2018-09-05T15:24:35.587Z,2.03
2018-09-05T15:27:05.801Z,1.80
2018-09-05T15:29:35.444Z,1.23
2018-09-05T15:32:04.893Z,1.60
2018-09-05T15:34:34.313Z,2.87
2018-09-05T15:37:04.111Z,1.60
2018-09-05T15:39:34.141Z,2.03
2018-09-05T15:42:04.223Z,1.83
2018-09-05T15:44:33.915Z,1.87
2018-09-05T15:47:03.310Z,2.40
2018-09-05T15:49:33.205Z,2.40
2018-09-05T15:52:02.845Z,1.70
2018-09-05T15:54:32.654Z,1.70
2018-09-05T15:57:02.305Z,1.57
2018-09-05T15:59:31.741Z,2.00
2018-09-05T16:02:02.300Z,3.47
2018-09-05T16:04:31.712Z,1.67
2018-09-05T16:07:01.488Z,3.87
2018-09-05T16:09:31.450Z,2.90
2018-09-05T16:12:01.184Z,2.03
2018-09-05T16:14:30.581Z,2.10
2018-09-05T16:17:03.481Z,1.43
2018-09-05T16:19:34.009Z,2.10
2018-09-05T16:22:03.793Z,1.50
2018-09-05T16:24:33.206Z,1.90
2018-09-05T16:27:03.030Z,2.33
2018-09-05T16:29:33.078Z,1.63
2018-09-05T16:32:02.781Z,1.70
2018-09-05T16:34:32.213Z,4.80
2018-09-05T16:37:02.901Z,1.90
2018-09-05T16:39:34.498Z,3.53
2018-09-05T16:42:04.316Z,2.23
2018-09-05T16:44:33.982Z,2.23
2018-09-05T16:47:03.824Z,1.37
2018-09-05T16:49:33.461Z,2.40
2018-09-05T16:52:03.245Z,1.97
2018-09-05T16:54:33.342Z,1.93
2018-09-05T16:57:02.960Z,1.90
2018-09-05T16:59:32.773Z,2.30
2018-09-05T17:02:02.502Z,2.00
2018-09-05T17:04:32.320Z,2.30
2018-09-05T17:07:02.014Z,1.50
2018-09-05T17:09:31.533Z,2.60
2018-09-05T17:12:01.096Z,2.73
2018-09-05T17:14:30.495Z,2.00
2018-09-05T17:17:00.604Z,2.10
2018-09-05T17:19:30.326Z,1.97
2018-09-05T17:21:59.818Z,1.80
2018-09-05T17:24:29.226Z,2.13
2018-09-05T17:26:59.132Z,2.00
2018-09-05T17:29:29.160Z,1.50
2018-09-05T17:31:58.892Z,2.50
2018-09-05T17:34:28.758Z,1.90
2018-09-05T17:36:58.782Z,1.93
2018-09-05T17:39:28.230Z,1.60
2018-09-05T17:41:57.739Z,2.83
2018-09-05T17:44:27.546Z,1.80
2018-09-05T17:46:57.556Z,2.10
2018-09-05T17:49:28.180Z,2.20
2018-09-05T17:51:57.610Z,1.90
2018-09-05T17:54:27.102Z,2.30
2018-09-05T17:56:57.082Z,2.70
2018-09-05T17:59:26.761Z,2.67
2018-09-05T18:01:56.612Z,2.10
2018-09-05T18:04:26.247Z,3.87
2018-09-05T18:06:56.012Z,2.37
2018-09-05T18:09:26.060Z,1.70
2018-09-05T18:11:55.726Z,2.07
2018-09-05T18:14:27.325Z,2.13
2018-09-05T18:16:56.996Z,1.40
2018-09-05T18:19:26.429Z,2.23
2018-09-05T18:21:56.004Z,2.57
2018-09-05T18:24:25.906Z,2.07
2018-09-05T18:26:55.917Z,2.13
2018-09-05T18:29:25.863Z,2.23
2018-09-05T18:31:55.526Z,1.93
2018-09-05T18:34:24.943Z,2.50
2018-09-05T18:36:54.777Z,2.27
2018-09-05T18:39:24.731Z,1.83
2018-09-05T18:41:54.469Z,2.67
2018-09-05T18:44:23.951Z,2.50
2018-09-05T18:46:53.768Z,2.77
2018-09-05T18:49:23.757Z,2.23
2018-09-05T18:51:53.492Z,2.90
2018-09-05T18:54:23.348Z,2.63
2018-09-05T18:56:53.368Z,3.17
2018-09-05T18:59:23.056Z,2.37
2018-09-05T19:01:52.528Z,2.20
2018-09-05T19:04:22.316Z,1.83
2018-09-05T19:06:52.293Z,2.60
2018-09-05T19:09:22.107Z,1.87
2018-09-05T19:11:51.588Z,2.17
2018-09-05T19:14:21.398Z,1.87
2018-09-05T19:16:51.418Z,1.43
2018-09-05T19:19:21.410Z,2.03
2018-09-05T19:21:51.177Z,5.40
2018-09-05T19:24:20.956Z,2.17
2018-09-05T19:26:51.053Z,3.07
2018-09-05T19:29:20.678Z,2.50
2018-09-05T19:31:50.186Z,2.90
2018-09-05T19:34:20.122Z,4.07
2018-09-05T19:36:49.787Z,3.43
2018-09-05T19:39:19.233Z,2.40
2018-09-05T19:41:48.897Z,2.23
2018-09-05T19:44:18.326Z,3.80
2018-09-05T19:46:47.757Z,2.47
2018-09-05T19:49:17.629Z,2.90
2018-09-05T19:51:47.677Z,3.00
2018-09-05T19:54:17.791Z,2.60
2018-09-05T19:56:47.616Z,2.57
2018-09-05T19:59:17.474Z,2.40
2018-09-05T20:01:47.775Z,3.73
2018-09-05T20:04:17.599Z,2.10
2018-09-05T20:06:47.591Z,2.33
2018-09-05T20:09:17.251Z,2.77
2018-09-05T20:11:47.593Z,2.10
2018-09-05T20:14:17.051Z,3.60
2018-09-05T20:16:46.505Z,3.63
2018-09-05T20:19:16.043Z,2.50
2018-09-05T20:21:45.507Z,4.73
2018-09-05T20:24:15.315Z,3.43
2018-09-05T20:26:44.945Z,2.77
2018-09-05T20:29:14.389Z,2.57
2018-09-05T20:31:43.805Z,3.00
2018-09-05T20:34:13.269Z,2.40
2018-09-05T20:36:42.718Z,2.43
2018-09-05T20:39:13.053Z,3.30
2018-09-05T20:41:42.702Z,3.10
2018-09-05T20:44:12.271Z,2.20
2018-09-05T20:46:41.730Z,4.27
2018-09-05T20:49:11.518Z,2.60
2018-09-05T20:51:41.418Z,3.23
2018-09-05T20:54:10.888Z,2.23
2018-09-05T20:56:40.468Z,2.50
2018-09-05T20:59:10.325Z,3.37
2018-09-05T21:01:39.978Z,2.87
2018-09-05T21:04:09.832Z,3.10
2018-09-05T21:06:39.437Z,2.23
2018-09-05T21:09:09.387Z,2.17
2018-09-05T21:11:38.785Z,3.43
2018-09-05T21:14:08.590Z,2.73
2018-09-05T21:16:38.661Z,3.47
2018-09-05T21:19:08.322Z,3.87
2018-09-05T21:21:37.779Z,2.30
2018-09-05T21:24:07.307Z,2.20
2018-09-05T21:26:37.157Z,3.03
2018-09-05T21:29:07.329Z,2.27
2018-09-05T21:31:37.351Z,4.43
2018-09-05T21:34:06.989Z,5.93
2018-09-05T21:36:37.353Z,2.00
2018-09-05T21:39:07.623Z,2.47
2018-09-05T21:41:37.104Z,2.80
2018-09-05T21:44:06.578Z,3.53
2018-09-05T21:46:36.397Z,3.50
2018-09-05T21:49:06.041Z,2.67
2018-09-05T21:51:35.782Z,2.43
2018-09-05T21:54:05.447Z,1.70
2018-09-05T21:56:34.926Z,4.70
2018-09-05T21:59:04.844Z,3.00
2018-09-05T22:01:34.865Z,4.00
2018-09-05T22:04:04.993Z,2.40
2018-09-05T22:06:34.622Z,3.17
2018-09-05T22:09:05.789Z,3.20
2018-09-05T22:11:35.772Z,2.13
2018-09-05T22:14:05.348Z,2.47
2018-09-05T22:16:34.773Z,3.30
2018-09-05T22:19:04.205Z,7.53
2018-09-05T22:21:34.022Z,2.53
2018-09-05T22:24:05.646Z,3.40
2018-09-05T22:26:35.270Z,3.20
2018-09-05T22:29:04.699Z,2.50
2018-09-05T22:31:34.564Z,4.43
2018-09-05T22:34:04.671Z,3.03
2018-09-05T22:36:34.655Z,3.77
2018-09-05T22:39:05.620Z,3.00
2018-09-05T22:41:35.249Z,2.53
2018-09-05T22:44:10.274Z,4.53
2018-09-05T22:46:45.045Z,3.33
2018-09-05T22:49:24.151Z,3.43
2018-09-05T22:52:07.654Z,3.83
2018-09-05T22:56:11.040Z,4.33
2018-09-05T22:58:52.169Z,3.10
2018-09-05T23:01:28.705Z,3.83
2018-09-05T23:05:05.176Z,4.57
2018-09-05T23:07:46.243Z,3.17
2018-09-05T23:11:20.536Z,3.23
2018-09-05T23:15:58.534Z,4.07
2018-09-05T23:18:56.695Z,3.10
2018-09-05T23:21:27.491Z,5.83
2018-09-05T23:24:03.638Z,3.97
2018-09-05T23:26:33.678Z,4.53
2018-09-05T23:29:03.709Z,4.30
2018-09-05T23:31:33.334Z,3.40
2018-09-05T23:34:04.980Z,4.10
2018-09-05T23:36:34.448Z,4.70
2018-09-05T23:39:07.000Z,3.50
2018-09-05T23:41:36.428Z,6.20
2018-09-05T23:44:05.844Z,3.60
2018-09-05T23:46:35.254Z,4.40
2018-09-05T23:49:04.688Z,4.13
2018-09-05T23:51:34.140Z,4.77
2018-09-05T23:54:03.550Z,5.40
2018-09-05T23:56:33.401Z,3.30
2018-09-05T23:59:05.169Z,3.97
